sensor_id;sensor_type;location;lat;lon;timestamp;pressure;altitude;pressure_sealevel;temperature;humidity
20037;BME280;10179;42.640;23.312;2022-11-03T00:02:08;94173.19;;;19.57;29.73
20037;BME280;10179;42.640;23.312;2022-11-03T00:04:33;93989.19;;;18.26;30.27
20037;BME280;10179;42.640;23.312;2022-11-03T00:06:58;94170.56;;;19.52;30.10
20037;BME280;10179;42.640;23.312;2022-11-03T00:09:24;94234.78;;;19.86;30.71
20037;BME280;10179;42.640;23.312;2022-11-03T00:11:51;94216.69;;;19.73;30.36
20037;BME280;10179;42.640;23.312;2022-11-03T00:14:17;94228.13;;;19.78;30.35
20037;BME280;10179;42.640;23.312;2022-11-03T00:16:43;94210.00;;;19.70;30.64
20037;BME280;10179;42.640;23.312;2022-11-03T00:19:09;94237.47;;;19.81;30.64
20037;BME280;10179;42.640;23.312;2022-11-03T00:21:35;94186.28;;;19.48;30.88
20037;BME280;10179;42.640;23.312;2022-11-03T00:24:01;94238.28;;;19.76;31.15
20037;BME280;10179;42.640;23.312;2022-11-03T00:26:32;94237.19;;;19.77;31.25
20037;BME280;10179;42.640;23.312;2022-11-03T00:29:00;94242.25;;;19.74;31.17
20037;BME280;10179;42.640;23.312;2022-11-03T00:31:28;94245.16;;;19.72;31.43
20037;BME280;10179;42.640;23.312;2022-11-03T00:33:54;94234.25;;;19.69;31.41
20037;BME280;10179;42.640;23.312;2022-11-03T00:36:24;94250.50;;;19.52;31.35
20037;BME280;10179;42.640;23.312;2022-11-03T00:38:51;94216.38;;;19.54;31.51
20037;BME280;10179;42.640;23.312;2022-11-03T00:41:18;94231.06;;;19.67;31.43
20037;BME280;10179;42.640;23.312;2022-11-03T00:43:47;94123.91;;;18.93;31.49
20037;BME280;10179;42.640;23.312;2022-11-03T00:46:14;94238.78;;;19.68;31.47
20037;BME280;10179;42.640;23.312;2022-11-03T00:48:40;94244.63;;;19.65;31.46
20037;BME280;10179;42.640;23.312;2022-11-03T00:53:49;94244.06;;;19.48;31.89
20037;BME280;10179;42.640;23.312;2022-11-03T00:56:20;94234.78;;;19.55;32.18
20037;BME280;10179;42.640;23.312;2022-11-03T00:58:46;94239.84;;;19.52;32.55
20037;BME280;10179;42.640;23.312;2022-11-03T01:01:18;94202.50;;;19.31;32.75
20037;BME280;10179;42.640;23.312;2022-11-03T01:03:46;94212.09;;;19.27;33.08
20037;BME280;10179;42.640;23.312;2022-11-03T01:06:35;94237.94;;;19.47;32.67
20037;BME280;10179;42.640;23.312;2022-11-03T01:11:48;94245.66;;;19.39;33.03
20037;BME280;10179;42.640;23.312;2022-11-03T01:14:15;94246.47;;;19.39;33.08
20037;BME280;10179;42.640;23.312;2022-11-03T01:16:41;94241.66;;;19.36;33.20
20037;BME280;10179;42.640;23.312;2022-11-03T01:19:07;94240.59;;;19.32;33.47
20037;BME280;10179;42.640;23.312;2022-11-03T01:21:32;94118.47;;;18.47;33.71
20037;BME280;10179;42.640;23.312;2022-11-03T01:24:02;94238.22;;;19.30;33.99
20037;BME280;10179;42.640;23.312;2022-11-03T01:26:29;94242.97;;;19.23;34.10
20037;BME280;10179;42.640;23.312;2022-11-03T01:28:55;94245.09;;;19.21;34.36
20037;BME280;10179;42.640;23.312;2022-11-03T01:31:22;94203.75;;;18.78;34.40
20037;BME280;10179;42.640;23.312;2022-11-03T01:33:50;94237.34;;;18.99;34.34
20037;BME280;10179;42.640;23.312;2022-11-03T01:36:16;94241.91;;;19.19;34.23
20037;BME280;10179;42.640;23.312;2022-11-03T01:38:42;94230.97;;;19.16;34.02
20037;BME280;10179;42.640;23.312;2022-11-03T01:41:10;94240.31;;;19.18;33.97
20037;BME280;10179;42.640;23.312;2022-11-03T01:43:38;94238.16;;;19.15;34.12
20037;BME280;10179;42.640;23.312;2022-11-03T01:48:33;94242.91;;;18.98;34.13
20037;BME280;10179;42.640;23.312;2022-11-03T01:51:00;94054.66;;;17.79;34.13
20037;BME280;10179;42.640;23.312;2022-11-03T01:53:27;94218.91;;;18.88;34.36
20037;BME280;10179;42.640;23.312;2022-11-03T01:55:55;94255.72;;;19.06;34.39
20037;BME280;10179;42.640;23.312;2022-11-03T01:58:25;94240.78;;;18.95;34.76
20037;BME280;10179;42.640;23.312;2022-11-03T02:00:53;94254.91;;;19.00;34.84
20037;BME280;10179;42.640;23.312;2022-11-03T02:03:20;94246.34;;;18.88;35.06
20037;BME280;10179;42.640;23.312;2022-11-03T02:05:48;94259.97;;;18.97;35.07
20037;BME280;10179;42.640;23.312;2022-11-03T02:08:25;94206.06;;;18.69;35.31
20037;BME280;10179;42.640;23.312;2022-11-03T02:10:52;94223.63;;;18.70;34.99
20037;BME280;10179;42.640;23.312;2022-11-03T02:13:25;94112.19;;;18.01;35.33
20037;BME280;10179;42.640;23.312;2022-11-03T02:15:58;94046.56;;;17.54;35.40
20037;BME280;10179;42.640;23.312;2022-11-03T02:18:27;94259.16;;;18.96;35.29
20037;BME280;10179;42.640;23.312;2022-11-03T02:21:06;94239.69;;;18.86;35.21
20037;BME280;10179;42.640;23.312;2022-11-03T02:23:42;94270.09;;;19.00;35.54
20037;BME280;10179;42.640;23.312;2022-11-03T02:26:14;94254.09;;;18.95;35.62
20037;BME280;10179;42.640;23.312;2022-11-03T02:28:40;94246.88;;;18.95;35.78
20037;BME280;10179;42.640;23.312;2022-11-03T02:31:22;94194.63;;;18.69;35.94
20037;BME280;10179;42.640;23.312;2022-11-03T02:36:26;94243.16;;;18.91;35.91
20037;BME280;10179;42.640;23.312;2022-11-03T02:39:06;94217.81;;;18.73;35.91
20037;BME280;10179;42.640;23.312;2022-11-03T02:41:36;94159.63;;;18.29;36.16
20037;BME280;10179;42.640;23.312;2022-11-03T02:44:05;94253.81;;;18.86;36.15
20037;BME280;10179;42.640;23.312;2022-11-03T02:46:33;94190.53;;;18.46;36.44
20037;BME280;10179;42.640;23.312;2022-11-03T02:48:59;94237.00;;;18.75;36.31
20037;BME280;10179;42.640;23.312;2022-11-03T02:51:24;94225.47;;;18.65;36.27
20037;BME280;10179;42.640;23.312;2022-11-03T02:54:05;94133.25;;;18.12;36.47
20037;BME280;10179;42.640;23.312;2022-11-03T02:56:34;94199.88;;;18.48;36.60
20037;BME280;10179;42.640;23.312;2022-11-03T02:59:05;94242.09;;;18.82;36.36
20037;BME280;10179;42.640;23.312;2022-11-03T03:04:25;94163.06;;;18.25;36.40
20037;BME280;10179;42.640;23.312;2022-11-03T03:07:04;94259.91;;;18.87;36.50
20037;BME280;10179;42.640;23.312;2022-11-03T03:09:40;94234.34;;;18.75;36.54
20037;BME280;10179;42.640;23.312;2022-11-03T03:12:09;94237.19;;;18.69;36.98
20037;BME280;10179;42.640;23.312;2022-11-03T03:14:41;94257.25;;;18.81;36.71
20037;BME280;10179;42.640;23.312;2022-11-03T03:17:33;94228.75;;;18.77;36.86
20037;BME280;10179;42.640;23.312;2022-11-03T03:20:02;94250.81;;;18.77;37.29
20037;BME280;10179;42.640;23.312;2022-11-03T03:22:44;94249.78;;;18.78;37.25
20037;BME280;10179;42.640;23.312;2022-11-03T03:25:21;94248.16;;;18.77;37.45
20037;BME280;10179;42.640;23.312;2022-11-03T03:27:57;94208.44;;;18.60;37.47
20037;BME280;10179;42.640;23.312;2022-11-03T03:30:25;94248.19;;;18.82;37.65
20037;BME280;10179;42.640;23.312;2022-11-03T03:32:53;94221.53;;;18.72;37.60
20037;BME280;10179;42.640;23.312;2022-11-03T03:35:22;94241.00;;;18.88;37.64
20037;BME280;10179;42.640;23.312;2022-11-03T03:37:52;94233.81;;;18.78;37.52
20037;BME280;10179;42.640;23.312;2022-11-03T03:40:23;94263.13;;;18.89;37.58
20037;BME280;10179;42.640;23.312;2022-11-03T03:42:51;94244.75;;;18.87;37.67
20037;BME280;10179;42.640;23.312;2022-11-03T03:45:18;94143.06;;;18.12;37.69
20037;BME280;10179;42.640;23.312;2022-11-03T03:47:45;94249.78;;;18.83;37.69
20037;BME280;10179;42.640;23.312;2022-11-03T03:50:11;94234.25;;;18.70;37.67
20037;BME280;10179;42.640;23.312;2022-11-03T03:52:36;93937.13;;;16.57;37.83
20037;BME280;10179;42.640;23.312;2022-11-03T03:55:02;94252.72;;;18.82;37.79
20037;BME280;10179;42.640;23.312;2022-11-03T03:57:30;94263.38;;;18.82;37.82
20037;BME280;10179;42.640;23.312;2022-11-03T03:59:56;93918.88;;;16.65;37.75
20037;BME280;10179;42.640;23.312;2022-11-03T04:02:22;94136.94;;;18.06;37.86
20037;BME280;10179;42.640;23.312;2022-11-03T04:04:47;94260.41;;;18.73;37.98
20037;BME280;10179;42.640;23.312;2022-11-03T04:07:12;94220.41;;;18.58;38.15
20037;BME280;10179;42.640;23.312;2022-11-03T04:09:57;94207.00;;;18.32;38.08
20037;BME280;10179;42.640;23.312;2022-11-03T04:12:22;94251.81;;;18.66;38.03
20037;BME280;10179;42.640;23.312;2022-11-03T04:15:11;94124.03;;;17.78;37.99
20037;BME280;10179;42.640;23.312;2022-11-03T04:17:55;94244.84;;;18.50;38.44
20037;BME280;10179;42.640;23.312;2022-11-03T04:20:39;94239.25;;;18.46;38.36
20037;BME280;10179;42.640;23.312;2022-11-03T04:23:23;94249.09;;;18.51;38.62
20037;BME280;10179;42.640;23.312;2022-11-03T04:25:53;94255.50;;;18.50;38.83
20037;BME280;10179;42.640;23.312;2022-11-03T04:28:20;94250.41;;;18.43;38.92
20037;BME280;10179;42.640;23.312;2022-11-03T04:30:46;94253.31;;;18.42;38.81
20037;BME280;10179;42.640;23.312;2022-11-03T04:33:14;94257.53;;;18.38;39.33
20037;BME280;10179;42.640;23.312;2022-11-03T04:35:41;94125.94;;;17.45;39.38
20037;BME280;10179;42.640;23.312;2022-11-03T04:40:51;94250.06;;;18.29;39.48
20037;BME280;10179;42.640;23.312;2022-11-03T04:43:18;94227.06;;;18.08;39.36
20037;BME280;10179;42.640;23.312;2022-11-03T04:45:45;94237.16;;;18.11;39.62
20037;BME280;10179;42.640;23.312;2022-11-03T04:48:14;94108.56;;;17.32;39.66
20037;BME280;10179;42.640;23.312;2022-11-03T04:50:40;93690.75;;;14.64;39.93
20037;BME280;10179;42.640;23.312;2022-11-03T04:53:12;94230.53;;;18.08;40.00
20037;BME280;10179;42.640;23.312;2022-11-03T04:55:41;94218.97;;;17.93;39.83
20037;BME280;10179;42.640;23.312;2022-11-03T04:58:22;94252.91;;;18.18;39.77
20037;BME280;10179;42.640;23.312;2022-11-03T05:00:51;94247.22;;;18.04;39.83
20037;BME280;10179;42.640;23.312;2022-11-03T05:03:22;94204.66;;;17.61;40.06
20037;BME280;10179;42.640;23.312;2022-11-03T05:05:47;94252.94;;;17.80;40.51
20037;BME280;10179;42.640;23.312;2022-11-03T05:08:16;94260.81;;;17.75;40.70
20037;BME280;10179;42.640;23.312;2022-11-03T05:10:43;94257.34;;;17.70;40.49
20037;BME280;10179;42.640;23.312;2022-11-03T05:13:29;94241.59;;;17.63;40.48
20037;BME280;10179;42.640;23.312;2022-11-03T05:16:02;94203.06;;;17.28;40.49
20037;BME280;10179;42.640;23.312;2022-11-03T05:18:33;94262.25;;;17.56;40.63
20037;BME280;10179;42.640;23.312;2022-11-03T05:21:06;94219.50;;;17.25;40.94
20037;BME280;10179;42.640;23.312;2022-11-03T05:23:38;94267.22;;;17.47;41.05
20037;BME280;10179;42.640;23.312;2022-11-03T05:26:06;94246.53;;;17.22;40.96
20037;BME280;10179;42.640;23.312;2022-11-03T05:28:38;94256.41;;;17.27;41.44
20037;BME280;10179;42.640;23.312;2022-11-03T05:31:21;94262.25;;;17.56;40.66
20037;BME280;10179;42.640;23.312;2022-11-03T05:33:47;94278.00;;;17.35;41.24
20037;BME280;10179;42.640;23.312;2022-11-03T05:36:18;94274.84;;;17.38;41.48
20037;BME280;10179;42.640;23.312;2022-11-03T05:38:44;94245.22;;;16.98;41.50
20037;BME280;10179;42.640;23.312;2022-11-03T05:41:21;94282.50;;;17.62;41.47
20037;BME280;10179;42.640;23.312;2022-11-03T05:44:02;94271.81;;;17.57;41.13
20037;BME280;10179;42.640;23.312;2022-11-03T05:46:33;94272.13;;;17.60;40.92
20037;BME280;10179;42.640;23.312;2022-11-03T05:49:01;94292.53;;;17.82;41.31
20037;BME280;10179;42.640;23.312;2022-11-03T05:51:30;94301.97;;;18.00;41.16
20037;BME280;10179;42.640;23.312;2022-11-03T05:53:59;94194.78;;;17.52;40.53
20037;BME280;10179;42.640;23.312;2022-11-03T05:56:26;94299.81;;;18.39;40.38
20037;BME280;10179;42.640;23.312;2022-11-03T05:58:55;94242.53;;;18.21;39.96
20037;BME280;10179;42.640;23.312;2022-11-03T06:01:31;94277.63;;;18.66;39.71
20037;BME280;10179;42.640;23.312;2022-11-03T06:04:18;94314.59;;;19.15;39.37
20037;BME280;10179;42.640;23.312;2022-11-03T06:06:52;94209.25;;;18.61;39.02
20037;BME280;10179;42.640;23.312;2022-11-03T06:09:20;94313.91;;;19.55;38.67
20037;BME280;10179;42.640;23.312;2022-11-03T06:11:48;94197.16;;;19.06;38.30
20037;BME280;10179;42.640;23.312;2022-11-03T06:14:23;94313.97;;;20.06;37.87
20037;BME280;10179;42.640;23.312;2022-11-03T06:17:12;94204.63;;;19.40;37.60
20037;BME280;10179;42.640;23.312;2022-11-03T06:19:46;94318.22;;;20.43;37.47
20037;BME280;10179;42.640;23.312;2022-11-03T06:22:19;94322.47;;;20.59;37.22
20037;BME280;10179;42.640;23.312;2022-11-03T06:24:46;94323.25;;;20.70;36.58
20037;BME280;10179;42.640;23.312;2022-11-03T06:27:21;94322.69;;;20.83;36.76
20037;BME280;10179;42.640;23.312;2022-11-03T06:29:52;94329.31;;;21.01;36.25
20037;BME280;10179;42.640;23.312;2022-11-03T06:32:21;94345.84;;;21.13;35.88
20037;BME280;10179;42.640;23.312;2022-11-03T06:34:55;94318.25;;;21.28;35.64
20037;BME280;10179;42.640;23.312;2022-11-03T06:37:28;94330.94;;;21.57;35.48
20037;BME280;10179;42.640;23.312;2022-11-03T06:42:51;94345.13;;;21.97;34.89
20037;BME280;10179;42.640;23.312;2022-11-03T06:45:20;94340.50;;;22.07;34.74
20037;BME280;10179;42.640;23.312;2022-11-03T06:47:47;94340.97;;;22.20;34.35
20037;BME280;10179;42.640;23.312;2022-11-03T06:52:48;94334.91;;;22.67;33.79
20037;BME280;10179;42.640;23.312;2022-11-03T06:57:49;94324.03;;;23.12;32.68
20037;BME280;10179;42.640;23.312;2022-11-03T07:02:55;94338.63;;;23.67;31.76
20037;BME280;10179;42.640;23.312;2022-11-03T07:05:27;94318.03;;;23.63;31.78
20037;BME280;10179;42.640;23.312;2022-11-03T07:07:55;94328.41;;;23.69;31.47
20037;BME280;10179;42.640;23.312;2022-11-03T07:10:30;94310.47;;;23.46;31.78
20037;BME280;10179;42.640;23.312;2022-11-03T07:12:58;94302.97;;;23.24;32.10
20037;BME280;10179;42.640;23.312;2022-11-03T07:15:27;94315.34;;;23.20;32.25
20037;BME280;10179;42.640;23.312;2022-11-03T07:17:55;94312.78;;;23.09;32.33
20037;BME280;10179;42.640;23.312;2022-11-03T07:20:21;94195.84;;;22.28;32.56
20037;BME280;10179;42.640;23.312;2022-11-03T07:22:48;94329.56;;;22.96;32.50
20037;BME280;10179;42.640;23.312;2022-11-03T07:25:19;94317.06;;;22.86;32.68
20037;BME280;10179;42.640;23.312;2022-11-03T07:27:50;94330.13;;;22.93;32.84
20037;BME280;10179;42.640;23.312;2022-11-03T07:30:33;94257.81;;;22.40;32.68
20037;BME280;10179;42.640;23.312;2022-11-03T07:33:23;94260.44;;;22.45;32.83
20037;BME280;10179;42.640;23.312;2022-11-03T07:35:51;94314.88;;;22.65;33.16
20037;BME280;10179;42.640;23.312;2022-11-03T07:38:20;94354.88;;;22.80;33.08
20037;BME280;10179;42.640;23.312;2022-11-03T07:40:46;94289.63;;;22.71;32.74
20037;BME280;10179;42.640;23.312;2022-11-03T07:43:17;94330.94;;;23.18;32.76
20037;BME280;10179;42.640;23.312;2022-11-03T07:45:50;94330.13;;;23.41;32.41
20037;BME280;10179;42.640;23.312;2022-11-03T07:48:32;94326.00;;;23.68;31.91
20037;BME280;10179;42.640;23.312;2022-11-03T07:51:00;94326.81;;;23.87;31.52
20037;BME280;10179;42.640;23.312;2022-11-03T07:53:41;94325.75;;;24.21;31.20
20037;BME280;10179;42.640;23.312;2022-11-03T07:56:26;94304.03;;;24.36;30.67
20037;BME280;10179;42.640;23.312;2022-11-03T07:59:04;94318.13;;;24.61;30.26
20037;BME280;10179;42.640;23.312;2022-11-03T08:01:39;94313.19;;;24.68;30.14
20037;BME280;10179;42.640;23.312;2022-11-03T08:04:07;94331.28;;;24.76;30.06
20037;BME280;10179;42.640;23.312;2022-11-03T08:06:34;94296.94;;;24.73;29.72
20037;BME280;10179;42.640;23.312;2022-11-03T08:08:59;94298.06;;;24.86;29.49
20037;BME280;10179;42.640;23.312;2022-11-03T08:11:25;94293.88;;;24.93;29.55
20037;BME280;10179;42.640;23.312;2022-11-03T08:13:50;94294.66;;;25.08;29.55
20037;BME280;10179;42.640;23.312;2022-11-03T08:16:16;94227.19;;;24.68;29.18
20037;BME280;10179;42.640;23.312;2022-11-03T08:18:42;94177.00;;;24.36;29.17
20037;BME280;10179;42.640;23.312;2022-11-03T08:21:07;94290.47;;;25.02;29.31
20037;BME280;10179;42.640;23.312;2022-11-03T08:23:33;94277.94;;;24.97;29.54
20037;BME280;10179;42.640;23.312;2022-11-03T08:25:58;94270.16;;;24.95;29.25
20037;BME280;10179;42.640;23.312;2022-11-03T08:28:24;94281.53;;;24.92;29.44
20037;BME280;10179;42.640;23.312;2022-11-03T08:30:49;94276.16;;;24.65;29.61
20037;BME280;10179;42.640;23.312;2022-11-03T08:33:15;94252.94;;;24.41;30.00
20037;BME280;10179;42.640;23.312;2022-11-03T08:35:40;94282.09;;;24.62;30.41
20037;BME280;10179;42.640;23.312;2022-11-03T08:38:06;94289.19;;;24.58;30.32
20037;BME280;10179;42.640;23.312;2022-11-03T08:40:31;94282.09;;;24.62;30.11
20037;BME280;10179;42.640;23.312;2022-11-03T08:42:57;94280.31;;;24.71;29.65
20037;BME280;10179;42.640;23.312;2022-11-03T08:45:22;94256.44;;;24.69;29.62
20037;BME280;10179;42.640;23.312;2022-11-03T08:47:48;94283.53;;;25.00;29.25
20037;BME280;10179;42.640;23.312;2022-11-03T08:50:13;94158.19;;;24.22;29.64
20037;BME280;10179;42.640;23.312;2022-11-03T08:52:39;94244.38;;;24.67;29.95
20037;BME280;10179;42.640;23.312;2022-11-03T08:55:04;94272.75;;;24.73;30.28
20037;BME280;10179;42.640;23.312;2022-11-03T08:57:30;94306.19;;;24.67;30.18
20037;BME280;10179;42.640;23.312;2022-11-03T08:59:55;94251.06;;;24.56;30.54
20037;BME280;10179;42.640;23.312;2022-11-03T09:02:22;94285.09;;;24.74;30.55
20037;BME280;10179;42.640;23.312;2022-11-03T09:04:47;94280.78;;;24.45;30.54
20037;BME280;10179;42.640;23.312;2022-11-03T09:07:12;94282.59;;;24.64;30.36
20037;BME280;10179;42.640;23.312;2022-11-03T09:09:38;94285.78;;;24.66;30.56
20037;BME280;10179;42.640;23.312;2022-11-03T09:12:03;94282.78;;;24.67;30.51
20037;BME280;10179;42.640;23.312;2022-11-03T09:14:29;94239.72;;;24.45;30.61
20037;BME280;10179;42.640;23.312;2022-11-03T09:16:54;94136.56;;;23.72;30.84
20037;BME280;10179;42.640;23.312;2022-11-03T09:19:20;94266.19;;;24.51;30.68
20037;BME280;10179;42.640;23.312;2022-11-03T09:21:45;94274.81;;;24.48;30.97
20037;BME280;10179;42.640;23.312;2022-11-03T09:24:11;94263.56;;;24.46;30.71
20037;BME280;10179;42.640;23.312;2022-11-03T09:26:36;94262.56;;;24.42;30.81
20037;BME280;10179;42.640;23.312;2022-11-03T09:29:02;94264.66;;;24.45;30.91
20037;BME280;10179;42.640;23.312;2022-11-03T09:31:28;94257.28;;;24.37;30.89
20037;BME280;10179;42.640;23.312;2022-11-03T09:33:53;94257.03;;;24.20;31.52
20037;BME280;10179;42.640;23.312;2022-11-03T09:36:19;94256.78;;;24.02;31.50
20037;BME280;10179;42.640;23.312;2022-11-03T09:38:44;94231.38;;;23.81;31.59
20037;BME280;10179;42.640;23.312;2022-11-03T09:41:10;94251.16;;;23.85;31.91
20037;BME280;10179;42.640;23.312;2022-11-03T09:43:45;94194.44;;;23.59;31.99
20037;BME280;10179;42.640;23.312;2022-11-03T09:46:12;94236.59;;;23.91;32.22
20037;BME280;10179;42.640;23.312;2022-11-03T09:48:38;94236.00;;;23.94;31.97
20037;BME280;10179;42.640;23.312;2022-11-03T09:51:04;94227.84;;;23.99;32.16
20037;BME280;10179;42.640;23.312;2022-11-03T09:53:30;94198.59;;;23.84;31.92
20037;BME280;10179;42.640;23.312;2022-11-03T09:55:56;94228.97;;;23.98;31.71
20037;BME280;10179;42.640;23.312;2022-11-03T09:58:21;93933.59;;;22.04;32.08
20037;BME280;10179;42.640;23.312;2022-11-03T10:00:47;94212.03;;;23.84;32.12
20037;BME280;10179;42.640;23.312;2022-11-03T10:03:14;94224.75;;;23.92;31.88
20037;BME280;10179;42.640;23.312;2022-11-03T10:05:43;94147.84;;;23.36;31.80
20037;BME280;10179;42.640;23.312;2022-11-03T10:10:47;94220.56;;;23.86;31.58
20037;BME280;10179;42.640;23.312;2022-11-03T10:13:21;94211.28;;;23.78;31.88
20037;BME280;10179;42.640;23.312;2022-11-03T10:15:47;94211.66;;;23.72;31.73
20037;BME280;10179;42.640;23.312;2022-11-03T10:18:13;94198.03;;;23.68;31.48
20037;BME280;10179;42.640;23.312;2022-11-03T10:20:39;94198.84;;;23.69;31.61
20037;BME280;10179;42.640;23.312;2022-11-03T10:23:04;94196.16;;;23.69;31.50
20037;BME280;10179;42.640;23.312;2022-11-03T10:25:38;94186.47;;;23.73;31.56
20037;BME280;10179;42.640;23.312;2022-11-03T10:28:13;94197.00;;;23.83;31.09
20037;BME280;10179;42.640;23.312;2022-11-03T10:30:48;94182.72;;;23.88;30.93
20037;BME280;10179;42.640;23.312;2022-11-03T10:33:35;94179.66;;;23.94;30.40
20037;BME280;10179;42.640;23.312;2022-11-03T10:36:23;94176.66;;;23.96;30.33
20037;BME280;10179;42.640;23.312;2022-11-03T10:38:49;94173.78;;;23.92;30.24
20037;BME280;10179;42.640;23.312;2022-11-03T10:44:15;94136.72;;;23.94;29.86
20037;BME280;10179;42.640;23.312;2022-11-03T10:47:00;94074.22;;;23.61;29.19
20037;BME280;10179;42.640;23.312;2022-11-03T10:49:31;94146.66;;;24.08;28.75
20037;BME280;10179;42.640;23.312;2022-11-03T10:52:18;94111.34;;;24.00;28.35
20037;BME280;10179;42.640;23.312;2022-11-03T10:54:45;94164.66;;;24.07;27.96
20037;BME280;10179;42.640;23.312;2022-11-03T10:57:11;94146.28;;;24.28;27.72
20037;BME280;10179;42.640;23.312;2022-11-03T10:59:38;94022.56;;;23.55;28.03
20037;BME280;10179;42.640;23.312;2022-11-03T11:02:14;94132.16;;;24.36;27.99
20037;BME280;10179;42.640;23.312;2022-11-03T11:04:41;94138.81;;;24.25;27.92
20037;BME280;10179;42.640;23.312;2022-11-03T11:07:18;94047.56;;;23.70;28.09
20037;BME280;10179;42.640;23.312;2022-11-03T11:09:45;94090.06;;;23.90;27.17
20037;BME280;10179;42.640;23.312;2022-11-03T11:12:20;94128.69;;;24.08;26.86
20037;BME280;10179;42.640;23.312;2022-11-03T11:15:00;94123.00;;;24.10;27.33
20037;BME280;10179;42.640;23.312;2022-11-03T11:17:41;94117.75;;;24.04;27.77
20037;BME280;10179;42.640;23.312;2022-11-03T11:22:46;94109.38;;;23.92;28.26
20037;BME280;10179;42.640;23.312;2022-11-03T11:25:11;94110.53;;;23.86;28.61
20037;BME280;10179;42.640;23.312;2022-11-03T11:32:49;94098.56;;;23.97;28.33
20037;BME280;10179;42.640;23.312;2022-11-03T11:37:52;94095.38;;;24.09;27.74
20037;BME280;10179;42.640;23.312;2022-11-03T11:48:29;93708.56;;;21.78;27.97
20037;BME280;10179;42.640;23.312;2022-11-03T11:50:59;94072.72;;;24.29;27.81
20037;BME280;10179;42.640;23.312;2022-11-03T11:53:26;94079.94;;;24.28;27.39
20037;BME280;10179;42.640;23.312;2022-11-03T11:55:55;94072.38;;;24.31;27.24
20037;BME280;10179;42.640;23.312;2022-11-03T11:58:47;94066.63;;;24.37;27.21
20037;BME280;10179;42.640;23.312;2022-11-03T12:01:30;94052.28;;;24.28;26.92
20037;BME280;10179;42.640;23.312;2022-11-03T12:04:00;94061.47;;;24.27;26.79
20037;BME280;10179;42.640;23.312;2022-11-03T12:06:33;94044.75;;;24.16;26.79
20037;BME280;10179;42.640;23.312;2022-11-03T12:09:13;94056.09;;;24.27;26.61
20037;BME280;10179;42.640;23.312;2022-11-03T12:12:00;94062.16;;;24.33;26.05
20037;BME280;10179;42.640;23.312;2022-11-03T12:14:34;94057.00;;;24.22;26.27
20037;BME280;10179;42.640;23.312;2022-11-03T12:19:51;94049.34;;;24.16;26.23
20037;BME280;10179;42.640;23.312;2022-11-03T12:29:49;94038.81;;;24.19;26.88
20037;BME280;10179;42.640;23.312;2022-11-03T12:32:15;94035.81;;;24.21;26.77
20037;BME280;10179;42.640;23.312;2022-11-03T12:34:41;93993.91;;;23.97;26.84
20037;BME280;10179;42.640;23.312;2022-11-03T12:37:06;94034.59;;;24.27;26.74
20037;BME280;10179;42.640;23.312;2022-11-03T12:39:32;94024.06;;;24.17;26.87
20037;BME280;10179;42.640;23.312;2022-11-03T12:41:58;94008.16;;;24.20;26.45
20037;BME280;10179;42.640;23.312;2022-11-03T12:44:23;93962.69;;;23.88;26.58
20037;BME280;10179;42.640;23.312;2022-11-03T12:46:49;94025.56;;;24.23;26.61
20037;BME280;10179;42.640;23.312;2022-11-03T12:49:14;94024.88;;;24.17;26.32
20037;BME280;10179;42.640;23.312;2022-11-03T12:51:39;93983.75;;;23.94;26.40
20037;BME280;10179;42.640;23.312;2022-11-03T12:54:05;94022.50;;;24.16;26.47
20037;BME280;10179;42.640;23.312;2022-11-03T12:56:30;94011.75;;;24.16;26.21
20037;BME280;10179;42.640;23.312;2022-11-03T12:58:55;94016.16;;;24.12;26.68
20037;BME280;10179;42.640;23.312;2022-11-03T13:01:21;94012.97;;;24.10;26.50
20037;BME280;10179;42.640;23.312;2022-11-03T13:03:46;94050.22;;;24.11;26.57
20037;BME280;10179;42.640;23.312;2022-11-03T13:06:12;94004.78;;;24.15;26.73
20037;BME280;10179;42.640;23.312;2022-11-03T13:08:39;94007.97;;;24.17;26.53
20037;BME280;10179;42.640;23.312;2022-11-03T13:11:05;93991.47;;;24.10;26.82
20037;BME280;10179;42.640;23.312;2022-11-03T13:13:53;93982.84;;;24.13;27.12
20037;BME280;10179;42.640;23.312;2022-11-03T13:16:19;93905.44;;;23.65;26.86
20037;BME280;10179;42.640;23.312;2022-11-03T13:18:45;93994.56;;;24.17;27.03
20037;BME280;10179;42.640;23.312;2022-11-03T13:21:11;93997.81;;;24.27;27.06
20037;BME280;10179;42.640;23.312;2022-11-03T13:23:38;94001.78;;;24.30;27.15
20037;BME280;10179;42.640;23.312;2022-11-03T13:26:03;93975.94;;;24.20;26.80
20037;BME280;10179;42.640;23.312;2022-11-03T13:28:29;93997.63;;;24.24;27.07
20037;BME280;10179;42.640;23.312;2022-11-03T13:30:54;93990.75;;;24.32;27.36
20037;BME280;10179;42.640;23.312;2022-11-03T13:33:19;93988.38;;;24.30;27.53
20037;BME280;10179;42.640;23.312;2022-11-03T13:35:45;93890.94;;;23.66;27.63
20037;BME280;10179;42.640;23.312;2022-11-03T13:38:10;93984.19;;;24.24;27.91
20037;BME280;10179;42.640;23.312;2022-11-03T13:40:36;93985.91;;;24.20;28.01
20037;BME280;10179;42.640;23.312;2022-11-03T13:43:01;93989.50;;;24.15;28.19
20037;BME280;10179;42.640;23.312;2022-11-03T13:45:26;93962.16;;;23.99;28.38
20037;BME280;10179;42.640;23.312;2022-11-03T13:47:52;93978.19;;;24.04;28.54
20037;BME280;10179;42.640;23.312;2022-11-03T13:50:18;93985.84;;;23.97;28.77
20037;BME280;10179;42.640;23.312;2022-11-03T13:52:43;93981.16;;;23.89;29.21
20037;BME280;10179;42.640;23.312;2022-11-03T13:55:10;93871.72;;;23.08;29.23
20037;BME280;10179;42.640;23.312;2022-11-03T13:57:36;93983.56;;;23.77;29.27
20037;BME280;10179;42.640;23.312;2022-11-03T14:00:05;93980.38;;;23.75;29.36
20037;BME280;10179;42.640;23.312;2022-11-03T14:02:31;93872.50;;;22.95;29.30
20037;BME280;10179;42.640;23.312;2022-11-03T14:04:57;93987.50;;;23.66;29.22